Sumiha, Russia
Current Conditions -  °F | °C
As of 12:00 PM on Friday 31 Oct 2014 (Local Time) from USCC Reporting Station
Broken Clouds Broken Clouds  
Wind Chill: 39°   Ceiling: 7000
Heat Index: 43°   Visibility: 4mi
Dew Point: 37°   Wind: 7mph
Humidity: 81%   Direction: 200°SSW
Pressure: 30.09"   Gusts: NA
Location:  55.23°N, 63.32°E
Report Text: USCC 310700Z 20003MPS 7000 BKN070 06/03 Q1019 27290050 NOSIGRMK QFE744
Loading
Personal Weather Stations






























Interactive Weather Map New forecast layout! Learn more

10-Day Weather Forecast

Advertisements
Track Severe Weather on mobile